Weather at Ministro Pistarini International Airport

Public forecast

Using degrees Celsius for public forecast. Weather courtesy of forecast.io.

Current aviation weather report (METAR) for Ministro Pistarini International Airport

Retrieved 2020/09/22 01:00 UTC (28 minutes ago):

SAEZ 220100Z 07006KT CAVOK 10/06 Q1024 NOSIG

Aviation forecast (TAF) for Ministro Pistarini International Airport

Retrieved 2020-09-22 00:00 UTC (1 hour ago):

TAF SAEZ 212300Z 2200/2224 05006KT CAVOK TX19/2218Z TN06/2210Z BECMG 2211/2213 02010KT BECMG 2222/2224 05005KT